Airfield :
LOGIN :

Register | Disclaimer

   EN    FR    IT 

 










Legend :    VFR   Marginal VFR   IFR   Intensive IFR   Very Intensive IFR
Visi :
Ceiling :
>= 8 km
>= 3000ft
5 to 8 km
1000 to 3000 ft
1500m to 5 km
500 to 1000 ft
800 to 1500m
200 to 500 ft
< 800m
< 200 ft
Symbols :   Thunderstorms  Fog  Heavy snow  Heavy precipitations  Wind > 20 kt
SIGMETs :     Misc.  Thunderstorms  Icing  Turbulence  Mountain Waves  Volcanic Ashes






- Airport Elevation : 24 ft
- IATA code : FAO


LPFR - Faro

CURRENT METAR :
  • 131030Z 18007KT 9999 FEW046 24/18 Q1017

EXPIRED METARs :
  • 131000Z 18007KT 9999 FEW048 24/18 Q1017
  • 130930Z 17007KT CAVOK 24/17 Q1016
  • 130900Z 13005KT 080V180 CAVOK 24/18 Q1016
  • 130830Z 15003KT 100V200 CAVOK 23/17 Q1016
  • 130800Z VRB01KT CAVOK 23/17 Q1016

TAF TAF LPFR
Valid from the 13 at 06:00 until the 14 at 06:00 UTC


130500Z 1306/1406 VRB02KT CAVOK
BECMG 1310/1312 22012KT
BECMG 1315/1317 26012KT
BECMG 1319/1321 33012KT
BECMG 1402/1404 VRB02KT



MET'MAP, your aeronautical weather chart ! - Copyright ORBIFLY December 2007 - Disclaimer

ORBIFLY MET'MAP TEAM :

Programming & Development : Alexandra Zaïnal
Concept & original design : Baudouin d'Aumeries
Assistance for programming : Marc-Olivier Méhu
Technical & hardware support : Manuel Goepfert

Contact : metmap@orbifly.com




SOURCES & CREDITS :

   NOAA